Time;durP1;ratioP1;P1;durP2;ratioP2;P2;SDS_P1;SDS_P2;PMS_P1;PMS_P2;Temp;Humidity;BMP_temperature;BMP_pressure;BME280_temperature;BME280_humidity;BME280_pressure;Samples;Min_cycle;Max_cycle;Signal;HPM_P1;HPM_P2
2022/07/24 00:01:23;;;;;;;2.70;2.50;;;;;;;31.29;32.85;99405.83;1885637;75;28112;-54
2022/07/24 00:04:11;;;;;;;2.45;2.35;;;;;;;31.32;32.72;99400.25;1895645;75;28115;-54
2022/07/24 00:07:00;;;;;;;2.70;2.50;;;;;;;31.32;32.66;99395.50;1879148;74;28108;-53
2022/07/24 00:09:48;;;;;;;2.80;2.50;;;;;;;31.31;32.53;99396.64;1887986;75;28199;-53
2022/07/24 00:12:37;;;;;;;2.50;2.30;;;;;;;31.26;32.44;99398.08;1883676;75;28132;-55
2022/07/24 00:15:25;;;;;;;2.30;2.20;;;;;;;31.24;32.30;99398.11;1862822;75;28270;-56
2022/07/24 00:18:14;;;;;;;2.47;2.33;;;;;;;31.23;32.09;99397.83;1865583;75;28101;-55
2022/07/24 00:21:02;;;;;;;2.53;2.33;;;;;;;31.17;32.05;99392.08;1870734;75;28191;-55
2022/07/24 00:23:51;;;;;;;2.40;2.30;;;;;;;31.14;31.97;99390.72;1887364;75;28217;-55
2022/07/24 00:26:39;;;;;;;2.45;2.35;;;;;;;31.05;31.91;99393.88;1879796;75;28180;-54
2022/07/24 00:29:29;;;;;;;2.30;2.20;;;;;;;31.00;32.03;99393.08;1885605;75;28129;-52
2022/07/24 00:32:18;;;;;;;2.53;2.40;;;;;;;30.97;32.04;99402.81;1874615;75;28117;-54
2022/07/24 00:35:07;;;;;;;3.00;2.70;;;;;;;30.97;32.10;99401.42;1883979;75;28194;-55
2022/07/24 00:37:55;;;;;;;2.50;2.40;;;;;;;30.95;32.13;99402.28;1890599;75;28217;-56
2022/07/24 00:40:44;;;;;;;2.30;2.20;;;;;;;30.96;32.13;99399.79;1877736;75;28218;-55
2022/07/24 00:43:33;;;;;;;2.42;2.22;;;;;;;30.97;32.13;99402.01;1873172;75;28053;-55
2022/07/24 00:46:21;;;;;;;2.30;2.20;;;;;;;30.96;32.14;99401.17;1872868;75;28214;-57
2022/07/24 00:49:13;;;;;;;2.20;2.10;;;;;;;30.98;32.16;99402.26;1872666;75;28176;-55
2022/07/24 00:52:01;;;;;;;2.17;2.08;;;;;;;30.97;32.19;99404.20;1868968;75;30124;-54
2022/07/24 00:54:50;;;;;;;2.30;2.20;;;;;;;30.99;32.16;99399.22;1868538;76;28176;-52
2022/07/24 00:57:39;;;;;;;2.40;2.30;;;;;;;30.98;32.12;99399.48;1823879;78;28430;-54
2022/07/24 01:00:28;;;;;;;2.47;2.37;;;;;;;30.95;32.09;99400.90;1868557;75;28192;-55
2022/07/24 01:03:16;;;;;;;2.62;2.40;;;;;;;30.94;32.13;99397.88;1859905;75;28233;-56
2022/07/24 01:06:06;;;;;;;2.40;2.30;;;;;;;30.94;32.11;99392.88;1870289;74;28279;-54
2022/07/24 01:08:55;;;;;;;3.10;2.63;;;;;;;30.95;32.13;99394.55;1867138;74;28187;-54
2022/07/24 01:11:44;;;;;;;2.25;2.08;;;;;;;30.95;32.20;99395.94;1870194;75;28180;-52
2022/07/24 01:14:33;;;;;;;2.00;1.90;;;;;;;30.96;32.19;99397.02;1858276;76;28274;-53
2022/07/24 01:17:22;;;;;;;3.33;2.60;;;;;;;30.97;32.15;99386.75;1867378;75;28123;-54
2022/07/24 01:20:12;;;;;;;2.40;2.30;;;;;;;30.96;32.15;99394.24;1868429;74;28617;-50
2022/07/24 01:23:00;;;;;;;2.20;2.10;;;;;;;30.95;32.20;99391.77;1873128;75;28274;-53
2022/07/24 01:25:49;;;;;;;3.25;2.30;;;;;;;30.96;32.19;99395.62;1861515;76;28231;-56
2022/07/24 01:28:38;;;;;;;2.50;2.30;;;;;;;30.96;32.23;99398.41;1856365;75;28187;-52
2022/07/24 01:31:27;;;;;;;2.22;2.12;;;;;;;31.00;32.21;99386.14;1857048;76;28240;-56
2022/07/24 01:34:15;;;;;;;2.30;2.20;;;;;;;30.99;32.24;99390.05;1872532;75;28133;-54
2022/07/24 01:37:04;;;;;;;2.55;2.45;;;;;;;30.99;32.25;99390.89;1841015;76;28222;-53
2022/07/24 01:39:52;;;;;;;2.35;2.25;;;;;;;31.01;32.28;99390.59;1872610;75;28135;-53
2022/07/24 01:42:40;;;;;;;2.20;2.10;;;;;;;31.01;32.27;99388.64;1872305;76;28109;-54
2022/07/24 01:45:28;;;;;;;2.37;2.27;;;;;;;31.01;32.27;99386.42;1873801;76;28094;-54
2022/07/24 01:48:17;;;;;;;2.50;2.30;;;;;;;31.01;32.24;99387.81;1873624;76;28175;-56
2022/07/24 01:51:06;;;;;;;2.20;2.10;;;;;;;31.02;32.20;99384.73;1856700;76;28197;-54
2022/07/24 01:53:54;;;;;;;2.42;2.30;;;;;;;31.01;32.13;99385.88;1868949;76;28238;-56
2022/07/24 01:56:42;;;;;;;2.47;2.27;;;;;;;30.99;32.07;99378.96;1871258;76;28180;-53
2022/07/24 01:59:31;;;;;;;2.20;2.10;;;;;;;31.04;32.03;99387.23;1845483;76;28182;-54
2022/07/24 02:02:19;;;;;;;2.47;2.30;;;;;;;31.01;32.02;99380.33;1870826;76;28175;-53
2022/07/24 02:05:09;;;;;;;2.45;2.30;;;;;;;31.02;31.98;99379.73;1864336;76;28177;-55
2022/07/24 02:08:00;;;;;;;2.60;2.20;;;;;;;30.99;31.95;99378.41;1863475;76;28102;-55
2022/07/24 02:10:48;;;;;;;2.20;2.10;;;;;;;31.02;31.96;99381.96;1860494;76;28205;-52
2022/07/24 02:13:36;;;;;;;2.50;2.30;;;;;;;31.03;31.92;99380.85;1851663;76;28232;-55
2022/07/24 02:16:25;;;;;;;2.40;2.30;;;;;;;31.03;31.82;99379.47;1867198;76;28107;-56
2022/07/24 02:19:13;;;;;;;1.90;1.80;;;;;;;30.99;31.89;99379.80;1855506;76;28041;-53
2022/07/24 02:22:03;;;;;;;2.25;2.15;;;;;;;31.00;31.88;99374.49;1871557;74;28327;-54
2022/07/24 02:24:52;;;;;;;2.25;2.15;;;;;;;31.00;31.85;99377.82;1865155;74;28251;-55
2022/07/24 02:27:41;;;;;;;2.40;2.30;;;;;;;31.00;31.85;99374.49;1866441;76;28098;-57
2022/07/24 02:30:29;;;;;;;2.30;2.20;;;;;;;30.98;31.88;99365.64;1853555;76;28198;-55
2022/07/24 02:33:18;;;;;;;2.35;2.15;;;;;;;30.98;31.79;99372.58;1856202;76;28030;-53
2022/07/24 02:36:08;;;;;;;2.20;2.10;;;;;;;30.96;31.80;99374.82;1871843;76;28107;-56
2022/07/24 02:38:57;;;;;;;2.33;2.23;;;;;;;30.93;31.78;99375.40;1858353;76;28248;-55
2022/07/24 02:41:45;;;;;;;2.40;2.20;;;;;;;30.92;31.84;99370.98;1871554;73;28133;-54
2022/07/24 02:44:33;;;;;;;2.30;2.10;;;;;;;30.91;31.79;99369.31;1849545;76;28204;-54
2022/07/24 02:47:21;;;;;;;3.10;2.20;;;;;;;30.92;31.80;99374.31;1869741;75;28208;-56
2022/07/24 02:50:09;;;;;;;2.12;2.02;;;;;;;30.90;31.84;99370.42;1861687;76;28981;-56
2022/07/24 02:52:58;;;;;;;2.50;2.30;;;;;;;30.87;31.94;99363.23;1847727;76;28226;-57
2022/07/24 02:55:47;;;;;;;2.27;2.17;;;;;;;30.88;32.03;99366.28;1839925;77;28187;-52
2022/07/24 02:58:35;;;;;;;2.40;2.30;;;;;;;30.89;32.11;99361.02;1837464;76;28114;-51
2022/07/24 03:01:23;;;;;;;2.33;2.23;;;;;;;30.89;32.17;99367.95;1856732;77;28189;-55
2022/07/24 03:04:12;;;;;;;2.15;2.05;;;;;;;30.88;32.22;99364.90;1844751;76;28131;-54
2022/07/24 03:07:00;;;;;;;2.50;2.30;;;;;;;30.89;32.28;99370.73;1874335;75;28149;-52
2022/07/24 03:09:48;;;;;;;2.50;2.30;;;;;;;30.88;32.26;99374.05;1856662;77;28113;-56
2022/07/24 03:12:37;;;;;;;2.17;2.08;;;;;;;30.89;32.26;99371.56;1845015;77;28168;-54
2022/07/24 03:15:26;;;;;;;2.50;2.30;;;;;;;30.86;32.36;99366.56;1859763;76;28148;-52
2022/07/24 03:18:14;;;;;;;2.40;2.30;;;;;;;30.86;32.44;99363.78;1868353;76;28180;-53
2022/07/24 03:21:03;;;;;;;2.40;2.30;;;;;;;30.85;32.53;99363.53;1877301;74;28124;-54
2022/07/24 03:23:51;;;;;;;3.02;2.35;;;;;;;30.87;32.54;99364.62;1877893;74;28180;-52
2022/07/24 03:26:39;;;;;;;2.40;2.30;;;;;;;30.87;32.58;99368.23;1858329;75;28049;-55
2022/07/24 03:29:27;;;;;;;2.60;2.40;;;;;;;30.87;32.53;99370.16;1872188;75;28101;-56
2022/07/24 03:32:16;;;;;;;2.27;2.17;;;;;;;30.85;32.61;99366.31;1860019;76;28130;-56
2022/07/24 03:35:06;;;;;;;2.33;2.00;;;;;;;30.85;32.63;99369.08;1861519;75;28247;-55
2022/07/24 03:37:54;;;;;;;2.47;2.27;;;;;;;30.85;32.64;99371.86;1868445;76;28197;-56
2022/07/24 03:40:42;;;;;;;2.40;2.30;;;;;;;30.87;32.67;99364.06;1850185;77;28142;-53
2022/07/24 03:43:30;;;;;;;2.83;2.62;;;;;;;30.87;32.68;99373.77;1856213;75;28169;-55
2022/07/24 03:46:19;;;;;;;2.70;2.50;;;;;;;30.87;32.71;99376.55;1846996;77;28125;-54
2022/07/24 03:49:08;;;;;;;2.30;2.20;;;;;;;30.88;32.71;99370.45;1854538;77;28108;-53
2022/07/24 03:51:56;;;;;;;2.35;2.25;;;;;;;30.87;32.80;99365.45;1868353;76;28153;-56
2022/07/24 03:54:45;;;;;;;2.27;2.17;;;;;;;30.89;32.77;99378.50;1862119;76;28161;-54
2022/07/24 03:57:33;;;;;;;2.55;2.37;;;;;;;30.89;32.81;99379.88;1856524;77;28165;-56
2022/07/24 04:00:22;;;;;;;2.60;2.40;;;;;;;30.92;32.84;99377.09;1856301;76;28110;-53
2022/07/24 04:03:10;;;;;;;2.40;2.20;;;;;;;30.90;32.78;99389.84;1856515;77;28180;-54
2022/07/24 04:06:04;;;;;;;2.37;2.27;;;;;;;30.91;32.79;99390.13;1842097;76;28252;-54
2022/07/24 04:08:52;;;;;;;2.63;2.53;;;;;;;30.90;32.85;99389.04;1833940;77;28252;-54
2022/07/24 04:11:40;;;;;;;2.58;2.40;;;;;;;30.91;32.89;99390.67;1867404;76;28187;-56
2022/07/24 04:14:29;;;;;;;2.80;2.60;;;;;;;30.87;32.94;99389.03;1866808;76;28081;-53
2022/07/24 04:17:18;;;;;;;2.30;2.20;;;;;;;30.89;32.94;99391.53;1835304;77;29259;-54
2022/07/24 04:20:08;;;;;;;3.08;2.17;;;;;;;30.92;32.98;99404.83;1864950;74;28174;-52
2022/07/24 04:22:56;;;;;;;2.27;2.17;;;;;;;30.92;33.01;99393.73;1869298;75;28034;-53
2022/07/24 04:25:44;;;;;;;2.40;2.30;;;;;;;30.95;33.00;99400.09;1846163;77;28451;-54
2022/07/24 04:28:34;;;;;;;2.42;2.33;;;;;;;30.92;33.03;99400.11;1858008;76;28110;-53
2022/07/24 04:31:22;;;;;;;2.52;2.33;;;;;;;30.93;33.07;99399.53;1854058;76;28137;-53
2022/07/24 04:34:10;;;;;;;2.40;2.30;;;;;;;30.92;33.10;99400.67;1861902;76;28185;-55
2022/07/24 04:36:59;;;;;;;2.70;2.50;;;;;;;30.94;33.14;99399.81;1856547;77;28117;-53
2022/07/24 04:39:47;;;;;;;2.50;2.37;;;;;;;30.91;33.20;99398.45;1851404;76;32586;-52
2022/07/24 04:42:36;;;;;;;2.70;2.50;;;;;;;30.92;33.19;99403.44;1855546;77;28251;-55
2022/07/24 04:45:24;;;;;;;2.50;2.30;;;;;;;30.92;33.17;99403.44;1858467;76;28256;-54
2022/07/24 04:48:13;;;;;;;3.47;2.30;;;;;;;30.91;33.18;99408.16;1854481;76;28227;-54
2022/07/24 04:51:01;;;;;;;2.80;2.60;;;;;;;30.92;33.20;99408.44;1850242;76;28190;-56
2022/07/24 04:53:56;;;;;;;2.30;2.20;;;;;;;30.94;33.17;99406.20;1878075;75;28062;-56
2022/07/24 04:56:41;;;;;;;2.70;2.50;;;;;;;30.93;33.18;99410.08;1883241;75;28148;-54
2022/07/24 04:59:29;;;;;;;2.50;2.40;;;;;;;30.92;33.18;99411.77;1866812;75;28098;-53
2022/07/24 05:02:18;;;;;;;2.80;2.60;;;;;;;30.91;33.18;99409.55;1856608;76;28110;-54
2022/07/24 05:05:07;;;;;;;2.67;2.58;;;;;;;30.91;33.21;99412.31;1861283;76;28177;-54
2022/07/24 05:07:55;;;;;;;2.50;2.40;;;;;;;30.91;33.24;99412.88;1859383;76;28281;-53
2022/07/24 05:10:44;;;;;;;2.45;2.35;;;;;;;30.90;33.25;99409.27;1842865;75;28303;-54
2022/07/24 05:13:33;;;;;;;2.45;2.35;;;;;;;30.90;33.27;99415.39;1868721;75;28117;-53
2022/07/24 05:16:22;;;;;;;2.40;2.30;;;;;;;30.90;33.30;99407.08;1851540;75;28172;-55
2022/07/24 05:19:10;;;;;;;2.75;2.60;;;;;;;30.88;33.36;99414.28;1882455;75;28049;-55
2022/07/24 05:21:58;;;;;;;2.33;2.22;;;;;;;30.87;33.41;99409.84;1868659;74;28159;-53
2022/07/24 05:24:47;;;;;;;2.77;2.57;;;;;;;30.88;33.50;99412.89;1871647;75;28109;-58
2022/07/24 05:27:36;;;;;;;2.75;2.60;;;;;;;30.80;33.60;99409.34;1872423;75;28603;-57
2022/07/24 05:30:25;;;;;;;3.00;2.80;;;;;;;30.70;33.79;99413.03;1854952;76;28229;-56
2022/07/24 05:33:13;;;;;;;3.00;2.80;;;;;;;30.60;34.08;99413.66;1864515;76;28083;-56
2022/07/24 05:36:01;;;;;;;3.10;2.90;;;;;;;30.52;34.34;99419.28;1847441;76;28159;-58
2022/07/24 05:38:50;;;;;;;3.20;2.90;;;;;;;30.45;34.55;99426.27;1859374;76;28166;-58
2022/07/24 05:41:38;;;;;;;3.02;2.83;;;;;;;30.37;34.77;99424.09;1858796;76;28328;-56
2022/07/24 05:44:27;;;;;;;3.33;3.02;;;;;;;30.31;34.96;99419.68;1864546;76;28197;-57
2022/07/24 05:47:15;;;;;;;3.12;2.92;;;;;;;30.29;35.08;99415.82;1843990;77;28185;-57
2022/07/24 05:50:06;;;;;;;2.90;2.70;;;;;;;30.30;35.11;99412.47;1850741;77;28172;-57
2022/07/24 05:52:54;;;;;;;3.37;3.08;;;;;;;30.31;35.16;99412.75;1854698;76;28414;-57
2022/07/24 05:55:42;;;;;;;3.17;2.98;;;;;;;30.28;35.31;99416.09;1855444;76;28269;-58
2022/07/24 05:58:31;;;;;;;3.62;3.33;;;;;;;30.26;35.45;99412.78;1853491;76;28284;-56
2022/07/24 06:01:19;;;;;;;3.25;2.90;;;;;;;30.24;35.68;99407.53;1846205;77;28386;-58
2022/07/24 06:04:08;;;;;;;3.30;3.00;;;;;;;30.24;35.80;99405.31;1859428;75;28120;-57
2022/07/24 06:06:56;;;;;;;3.47;3.17;;;;;;;30.26;35.85;99403.92;1857425;76;28105;-57
2022/07/24 06:09:44;;;;;;;3.30;3.10;;;;;;;30.28;35.88;99409.16;1872288;74;28441;-57
2022/07/24 06:12:33;;;;;;;3.33;3.12;;;;;;;30.27;35.97;99404.17;1854361;74;28244;-58
2022/07/24 06:15:21;;;;;;;3.40;3.10;;;;;;;30.25;36.12;99405.02;1874972;75;28149;-58
2022/07/24 06:18:09;;;;;;;3.27;3.08;;;;;;;30.21;36.18;99407.27;1867990;75;28112;-58
2022/07/24 06:20:58;;;;;;;3.40;3.02;;;;;;;30.23;36.13;99405.03;1860643;76;28318;-59
2022/07/24 06:23:46;;;;;;;3.20;3.00;;;;;;;30.22;36.14;99404.78;1869126;75;28278;-59
2022/07/24 06:26:35;;;;;;;3.40;3.20;;;;;;;30.22;36.11;99401.45;1867880;76;28293;-57
2022/07/24 06:29:23;;;;;;;3.75;3.30;;;;;;;30.24;36.14;99401.99;1869490;76;28185;-57
2022/07/24 06:32:12;;;;;;;3.70;3.40;;;;;;;30.27;36.11;99404.17;1858063;76;28126;-59
2022/07/24 06:35:00;;;;;;;3.20;3.00;;;;;;;30.27;36.05;99396.44;1847300;76;28260;-58
2022/07/24 06:37:49;;;;;;;3.33;3.12;;;;;;;30.29;36.01;99396.42;1869673;75;31100;-58
2022/07/24 06:40:38;;;;;;;3.27;3.08;;;;;;;30.31;35.95;99391.97;1871082;75;28354;-57
2022/07/24 06:43:26;;;;;;;3.42;3.22;;;;;;;30.33;35.94;99387.83;1853460;76;28121;-56
2022/07/24 06:46:15;;;;;;;4.30;2.95;;;;;;;30.31;35.96;99386.42;1858077;76;28128;-57
2022/07/24 06:49:03;;;;;;;3.35;3.15;;;;;;;30.31;35.96;99382.27;1858286;75;28203;-59
2022/07/24 06:51:52;;;;;;;3.33;3.13;;;;;;;30.28;35.88;99387.83;1870080;75;28102;-59
2022/07/24 06:54:41;;;;;;;3.15;2.95;;;;;;;30.28;35.85;99395.30;1868269;76;28757;-58
2022/07/24 06:57:30;;;;;;;3.30;3.08;;;;;;;30.30;35.77;99394.45;1862676;76;28106;-55
2022/07/24 07:00:19;;;;;;;3.02;2.83;;;;;;;30.27;35.76;99383.38;1864403;75;28214;-57
2022/07/24 07:03:07;;;;;;;3.45;3.15;;;;;;;30.27;35.73;99383.38;1868387;75;28514;-56
2022/07/24 07:05:56;;;;;;;3.40;3.20;;;;;;;30.25;35.77;99387.55;1867739;76;28109;-63
2022/07/24 07:08:44;;;;;;;3.25;3.05;;;;;;;30.24;35.84;99385.37;1865513;74;28198;-57
2022/07/24 07:11:32;;;;;;;3.30;3.10;;;;;;;30.20;35.87;99389.00;1868725;74;28051;-55
2022/07/24 07:14:21;;;;;;;3.08;2.87;;;;;;;30.19;35.82;99392.33;1853205;76;28678;-57
2022/07/24 07:17:09;;;;;;;3.35;3.15;;;;;;;30.18;35.97;99385.11;1867309;76;28184;-58
2022/07/24 07:19:57;;;;;;;3.30;3.10;;;;;;;30.22;36.01;99382.06;1843266;76;28667;-56
2022/07/24 07:22:46;;;;;;;3.35;3.15;;;;;;;30.29;35.93;99378.41;1868407;76;28216;-55
2022/07/24 07:25:34;;;;;;;3.50;3.30;;;;;;;30.36;35.72;99366.47;1867263;74;28129;-53
2022/07/24 07:28:23;;;;;;;3.27;3.00;;;;;;;30.36;35.73;99372.56;1877700;75;28161;-57
2022/07/24 07:31:12;;;;;;;3.35;3.15;;;;;;;30.30;35.79;99370.34;1868944;75;28164;-56
2022/07/24 07:34:01;;;;;;;3.37;3.17;;;;;;;30.35;35.81;99370.89;1867162;75;28533;-55
2022/07/24 07:36:49;;;;;;;3.62;3.33;;;;;;;30.31;35.88;99372.56;1876614;75;28239;-54
2022/07/24 07:39:38;;;;;;;3.63;3.43;;;;;;;30.33;35.90;99365.66;1852972;76;28213;-55
2022/07/24 07:42:26;;;;;;;3.20;3.00;;;;;;;30.38;36.08;99367.55;1856233;76;28191;-57
2022/07/24 07:45:15;;;;;;;3.17;2.98;;;;;;;30.47;36.01;99368.03;1863112;76;28163;-55
2022/07/24 07:48:04;;;;;;;3.47;3.27;;;;;;;30.55;35.88;99366.59;1865815;75;28202;-58
2022/07/24 07:50:52;;;;;;;3.30;3.10;;;;;;;30.59;35.80;99363.50;1887353;75;28152;-56
2022/07/24 07:53:41;;;;;;;3.50;3.30;;;;;;;30.62;35.76;99362.34;1888944;74;27999;-58
2022/07/24 07:56:31;;;;;;;3.30;3.10;;;;;;;30.53;35.59;99359.93;1874368;75;28523;-56
2022/07/24 07:59:19;;;;;;;9.73;3.50;;;;;;;30.49;35.50;99358.86;1873055;75;28183;-55
2022/07/24 08:02:07;;;;;;;3.30;3.00;;;;;;;30.48;35.85;99357.20;1868271;75;28157;-59
2022/07/24 08:04:56;;;;;;;3.17;2.98;;;;;;;30.51;35.51;99353.85;1871132;75;28268;-59
2022/07/24 08:07:44;;;;;;;3.40;3.20;;;;;;;30.51;35.31;99348.31;1869900;75;28156;-57
2022/07/24 08:10:32;;;;;;;3.30;3.10;;;;;;;30.53;35.31;99348.01;1868965;75;28228;-58
2022/07/24 08:13:21;;;;;;;3.30;3.10;;;;;;;30.60;35.30;99344.34;1796148;78;28217;-60
2022/07/24 08:16:09;;;;;;;3.55;3.35;;;;;;;30.64;35.31;99342.66;1807465;78;28363;-57
2022/07/24 08:18:58;;;;;;;3.72;3.40;;;;;;;30.67;35.35;99337.89;1805805;78;28517;-56
2022/07/24 08:21:47;;;;;;;3.20;3.00;;;;;;;30.74;35.34;99342.54;1821700;78;28437;-56
2022/07/24 08:24:35;;;;;;;3.33;3.07;;;;;;;30.78;35.34;99338.64;1819020;78;28326;-55
2022/07/24 08:27:24;;;;;;;3.83;3.03;;;;;;;30.80;35.30;99334.45;1825390;78;28307;-56
2022/07/24 08:30:13;;;;;;;3.37;3.08;;;;;;;30.88;35.22;99324.67;1825808;78;28315;-55
2022/07/24 08:33:01;;;;;;;3.02;2.83;;;;;;;30.93;35.13;99328.23;1883803;75;28234;-54
2022/07/24 08:35:50;;;;;;;3.00;2.80;;;;;;;30.98;35.04;99333.73;1879330;75;28138;-57
2022/07/24 08:38:38;;;;;;;3.27;3.08;;;;;;;31.03;34.97;99339.23;1892889;75;28055;-54
2022/07/24 08:41:32;;;;;;;3.05;2.85;;;;;;;31.05;34.90;99328.66;1838859;77;28178;-55
2022/07/24 08:44:19;;;;;;;2.62;2.52;;;;;;;31.08;34.87;99332.25;1818762;78;28312;-55
2022/07/24 08:47:08;;;;;;;3.00;2.80;;;;;;;31.08;34.85;99327.25;1824804;78;28526;-55
2022/07/24 08:49:59;;;;;;;3.17;2.98;;;;;;;31.08;34.81;99311.44;1797923;77;28535;-53
2022/07/24 08:52:48;;;;;;;3.17;2.80;;;;;;;31.12;34.76;99315.27;1802002;78;28321;-55
2022/07/24 08:55:37;;;;;;;2.92;2.72;;;;;;;31.17;34.73;99312.44;1803433;78;28453;-56
2022/07/24 08:58:25;;;;;;;3.05;2.87;;;;;;;31.19;34.67;99313.52;1802464;78;28427;-54
2022/07/24 09:01:14;;;;;;;2.80;2.70;;;;;;;31.20;34.65;99309.63;1785525;78;28605;-55
2022/07/24 09:04:02;;;;;;;3.10;2.90;;;;;;;31.21;34.64;99302.38;1803314;78;28386;-56
2022/07/24 09:06:59;;;;;;;2.80;2.70;;;;;;;31.22;34.61;99301.83;1773622;78;28399;-56
2022/07/24 09:10:02;;;;;;;3.40;3.10;;;;;;;31.26;34.55;99298.16;1789168;78;28340;-56
2022/07/24 09:12:50;;;;;;;2.80;2.70;;;;;;;31.28;34.52;99301.46;1794828;78;28354;-55
2022/07/24 09:15:49;;;;;;;2.90;2.70;;;;;;;31.27;34.52;99291.47;1797038;78;28347;-53
2022/07/24 09:18:37;;;;;;;3.03;2.83;;;;;;;31.29;34.48;99293.97;1763731;79;28433;-54
2022/07/24 09:21:25;;;;;;;2.80;2.60;;;;;;;31.30;34.46;99289.50;1843729;76;28248;-55
2022/07/24 09:24:22;;;;;;;2.60;2.50;;;;;;;31.32;34.43;99292.80;1835253;76;28316;-53
2022/07/24 09:27:13;;;;;;;2.95;2.75;;;;;;;31.35;34.41;99292.21;1845852;76;28323;-55
2022/07/24 09:30:03;;;;;;;3.02;2.83;;;;;;;31.36;34.42;99285.55;1835618;76;28557;-53
2022/07/24 09:32:57;;;;;;;2.90;2.70;;;;;;;31.38;34.39;99281.08;1861405;76;28245;-54
2022/07/24 09:35:48;;;;;;;2.75;2.55;;;;;;;31.40;34.32;99269.11;1834160;76;28336;-55
2022/07/24 09:38:38;;;;;;;2.70;2.60;;;;;;;31.40;34.30;99275.49;1874129;76;28095;-52
2022/07/24 09:41:27;;;;;;;2.40;2.30;;;;;;;31.41;34.32;99269.39;1809516;76;28480;-56
2022/07/24 09:44:16;;;;;;;2.98;2.77;;;;;;;31.41;34.33;99266.02;1838477;76;28376;-54
2022/07/24 09:47:07;;;;;;;2.60;2.50;;;;;;;31.44;34.30;99263.25;1813828;77;28348;-56
2022/07/24 09:49:59;;;;;;;2.60;2.42;;;;;;;31.46;34.27;99260.19;1850282;74;28132;-55
2022/07/24 09:52:47;;;;;;;2.80;2.60;;;;;;;31.48;34.25;99251.00;1871891;76;28109;-54
2022/07/24 09:55:37;;;;;;;2.50;2.40;;;;;;;31.46;34.28;99246.31;1886392;75;28133;-56
2022/07/24 09:58:26;;;;;;;2.62;2.42;;;;;;;31.49;34.25;99252.63;1881382;75;28307;-56
2022/07/24 10:01:20;;;;;;;2.60;2.50;;;;;;;31.51;34.21;99244.85;1866012;76;28152;-55
2022/07/24 10:04:11;;;;;;;2.50;2.40;;;;;;;31.51;34.21;99236.52;1862175;76;28125;-57
2022/07/24 10:07:02;;;;;;;2.90;2.70;;;;;;;31.51;34.24;99242.08;1876596;76;28109;-54
2022/07/24 10:09:53;;;;;;;2.40;2.30;;;;;;;31.51;34.22;99235.13;1875903;75;28218;-56
2022/07/24 10:12:43;;;;;;;2.58;2.47;;;;;;;31.52;34.21;99235.38;1847376;76;28206;-55
2022/07/24 10:15:34;;;;;;;2.70;2.50;;;;;;;31.55;34.19;99231.45;1852368;75;28312;-54
2022/07/24 10:18:24;;;;;;;2.70;2.50;;;;;;;31.53;34.19;99225.94;1885801;75;28156;-56
2022/07/24 10:21:18;;;;;;;2.80;2.60;;;;;;;31.54;34.22;99216.47;1884809;75;28304;-56
2022/07/24 10:24:11;;;;;;;2.60;2.40;;;;;;;31.54;34.20;99213.69;1872919;75;28173;-54
2022/07/24 10:27:03;;;;;;;2.75;2.50;;;;;;;31.56;34.20;99218.38;1869615;74;28156;-57
2022/07/24 10:29:54;;;;;;;2.80;2.60;;;;;;;31.57;34.19;99217.26;1867677;76;28157;-52
2022/07/24 10:32:45;;;;;;;2.47;2.37;;;;;;;31.57;34.19;99214.48;1877908;75;28224;-55
2022/07/24 10:35:35;;;;;;;2.65;2.55;;;;;;;31.57;34.16;99207.55;1880803;75;28376;-55
2022/07/24 10:38:26;;;;;;;2.90;2.70;;;;;;;31.58;34.18;99206.43;1877939;76;28139;-58
2022/07/24 10:41:17;;;;;;;2.47;2.37;;;;;;;31.61;34.14;99203.03;1862774;75;29189;-56
2022/07/24 10:44:20;;;;;;;2.50;2.30;;;;;;;31.59;34.15;99194.17;1879267;75;28112;-57
2022/07/24 10:47:15;;;;;;;2.60;2.40;;;;;;;31.60;34.17;99195.25;1871767;75;28141;-56
2022/07/24 10:50:04;;;;;;;2.47;2.30;;;;;;;31.58;34.18;99188.38;1872498;75;28128;-55
2022/07/24 10:52:53;;;;;;;2.58;2.47;;;;;;;31.59;34.19;99176.13;1883543;75;28137;-55
2022/07/24 10:55:42;;;;;;;2.67;2.47;;;;;;;31.63;34.16;99179.94;1881128;75;28210;-57
2022/07/24 10:58:35;;;;;;;2.67;2.58;;;;;;;31.62;34.14;99181.92;1875037;75;28061;-55
2022/07/24 11:01:32;;;;;;;2.70;2.50;;;;;;;31.65;34.13;99179.91;1862655;75;28175;-57
2022/07/24 11:04:23;;;;;;;2.47;2.37;;;;;;;31.67;34.08;99172.67;1869938;75;28399;-55
2022/07/24 11:07:13;;;;;;;2.42;2.33;;;;;;;31.67;34.07;99165.73;1860071;76;28192;-56
2022/07/24 11:10:07;;;;;;;2.42;2.22;;;;;;;31.65;34.11;99166.02;1878222;75;28112;-53
2022/07/24 11:12:56;;;;;;;2.40;2.30;;;;;;;31.64;34.11;99157.44;1878002;75;28125;-56
2022/07/24 11:16:13;;;;;;;2.10;2.00;;;;;;;31.68;34.13;99157.09;1876751;75;28249;-56
2022/07/24 11:19:05;;;;;;;2.45;2.25;;;;;;;31.69;34.09;99148.20;1864020;76;28112;-55
2022/07/24 11:21:56;;;;;;;2.52;2.33;;;;;;;31.66;34.17;99152.41;1877318;75;28134;-55
2022/07/24 11:24:47;;;;;;;2.20;2.10;;;;;;;31.68;34.17;99145.15;1879061;75;28266;-57
2022/07/24 11:27:47;;;;;;;2.42;2.22;;;;;;;31.62;34.13;99127.77;1880824;74;28174;-56
2022/07/24 11:30:38;;;;;;;2.20;2.10;;;;;;;31.72;34.07;99139.23;1880637;75;28182;-57
2022/07/24 11:33:27;;;;;;;2.20;2.10;;;;;;;31.71;34.08;99132.05;1870002;76;28148;-53
2022/07/24 11:36:15;;;;;;;2.30;2.20;;;;;;;31.71;34.10;99130.11;1866770;76;28109;-55
2022/07/24 11:39:04;;;;;;;2.30;2.20;;;;;;;31.73;34.08;99125.07;1880433;75;28117;-56
2022/07/24 11:41:55;;;;;;;2.40;2.20;;;;;;;31.74;34.07;99107.84;1878954;75;28159;-57
2022/07/24 11:44:46;;;;;;;2.20;2.10;;;;;;;31.75;34.09;99106.70;1861807;76;28180;-56
2022/07/24 11:47:34;;;;;;;2.20;2.10;;;;;;;31.77;34.04;99103.05;1874639;76;28174;-55
2022/07/24 11:50:24;;;;;;;2.45;2.30;;;;;;;31.78;34.00;99096.38;1870767;76;28282;-56
2022/07/24 11:53:13;;;;;;;2.20;2.10;;;;;;;31.78;33.98;99097.77;1883658;75;36348;-54
2022/07/24 11:56:05;;;;;;;2.20;2.10;;;;;;;31.77;34.00;99087.21;1869736;75;28190;-55
2022/07/24 11:58:54;;;;;;;2.20;2.10;;;;;;;31.78;34.03;99079.16;1888775;75;28217;-56
2022/07/24 12:01:42;;;;;;;2.37;2.27;;;;;;;31.81;34.00;99079.11;1880633;75;28056;-59
2022/07/24 12:04:32;;;;;;;2.20;2.10;;;;;;;31.79;34.02;99075.23;1878569;75;28132;-53
2022/07/24 12:07:24;;;;;;;1.87;1.85;;;;;;;31.79;34.06;99066.89;1862154;76;28206;-57
2022/07/24 12:10:16;;;;;;;2.30;2.20;;;;;;;31.79;34.18;99064.67;1877293;75;31212;-55
2022/07/24 12:13:04;;;;;;;2.10;2.00;;;;;;;31.80;34.23;99056.05;1846441;76;28394;-58
2022/07/24 12:15:52;;;;;;;2.15;2.05;;;;;;;31.80;34.26;99060.78;1881524;75;28137;-56
2022/07/24 12:18:40;;;;;;;2.10;2.00;;;;;;;31.80;34.31;99051.06;1881850;75;28561;-54
2022/07/24 12:21:29;;;;;;;2.40;2.30;;;;;;;31.81;34.35;99043.00;1869430;75;28322;-56
2022/07/24 12:24:19;;;;;;;2.20;2.10;;;;;;;31.83;34.38;99040.73;1845864;76;28247;-55
2022/07/24 12:27:07;;;;;;;1.90;1.80;;;;;;;31.82;34.42;99043.23;1885070;74;28174;-59
2022/07/24 12:29:56;;;;;;;2.20;2.00;;;;;;;31.83;34.43;99037.39;1867084;74;28187;-55
2022/07/24 12:32:59;;;;;;;2.00;1.90;;;;;;;31.84;34.49;99039.03;1887777;74;28045;-56
2022/07/24 12:36:08;;;;;;;2.00;1.90;;;;;;;31.86;34.47;99027.59;1877496;76;28160;-57
2022/07/24 12:38:57;;;;;;;2.37;2.22;;;;;;;31.85;34.48;99021.80;1877919;76;28227;-56
2022/07/24 12:41:50;;;;;;;2.17;2.08;;;;;;;31.85;34.51;99016.24;1877956;76;28131;-57
2022/07/24 12:44:44;;;;;;;2.17;2.07;;;;;;;31.83;34.52;99018.51;1859756;76;28262;-56
2022/07/24 12:47:33;;;;;;;2.00;1.90;;;;;;;31.86;34.48;99009.54;1878011;76;28672;-56
2022/07/24 12:50:21;;;;;;;2.25;2.05;;;;;;;31.86;34.46;99008.15;1878022;76;28129;-58
2022/07/24 12:53:10;;;;;;;2.30;2.10;;;;;;;31.88;34.46;99001.75;1864193;76;28209;-54
2022/07/24 12:56:11;;;;;;;2.30;2.20;;;;;;;31.87;34.46;98999.53;1825610;78;32263;-55
2022/07/24 12:59:04;;;;;;;2.17;1.98;;;;;;;31.83;34.44;98986.56;1828134;77;28143;-54
2022/07/24 13:01:55;;;;;;;2.17;2.08;;;;;;;31.89;34.44;98992.27;1856980;77;28122;-54
2022/07/24 13:04:52;;;;;;;2.05;1.95;;;;;;;31.88;34.47;98981.71;1856163;77;28335;-57
2022/07/24 13:07:41;;;;;;;2.10;2.00;;;;;;;31.89;34.44;98981.98;1854283;76;28235;-57
2022/07/24 13:10:29;;;;;;;2.62;2.22;;;;;;;31.87;34.61;98974.52;1837500;77;28659;-60
2022/07/24 13:13:18;;;;;;;2.00;1.90;;;;;;;31.86;34.68;98969.26;1866242;76;28117;-57
2022/07/24 13:16:07;;;;;;;3.62;2.08;;;;;;;31.91;34.71;98970.55;1866887;76;28164;-55
2022/07/24 13:18:55;;;;;;;2.10;2.00;;;;;;;31.89;34.75;98971.43;1844764;75;28176;-58